Time;durP1;ratioP1;P1;durP2;ratioP2;P2;SDS_P1;SDS_P2;PMS_P1;PMS_P2;Temp;Humidity;BMP_temperature;BMP_pressure;BME280_temperature;BME280_humidity;BME280_pressure;Samples;Min_cycle;Max_cycle;Signal;HPM_P1;HPM_P2
2023/04/25 00:00:37;;;;;;;;;;;;;;;7.25;69.76;98927.22;5082043;28;2236;-77
2023/04/25 00:03:05;;;;;;;;;;;;;;;7.23;69.48;98922.06;5067249;28;1972;-77
2023/04/25 00:05:31;;;;;;;;;;;;;;;7.24;69.35;98929.06;5061276;28;2190;-77
2023/04/25 00:07:58;;;;;;;;;;;;;;;7.21;69.39;98926.88;5084596;28;1986;-77
2023/04/25 00:10:24;;;;;;;;;;;;;;;7.23;69.51;98937.34;5084049;28;2141;-77
2023/04/25 00:12:51;;;;;;;;;;;;;;;7.25;69.67;98935.25;5084353;28;2673;-77
2023/04/25 00:15:17;;;;;;;;;;;;;;;7.23;69.51;98929.31;5081880;28;2338;-78
2023/04/25 00:17:45;;;;;;;;;;;;;;;7.21;69.76;98921.53;5064140;28;2091;-76
2023/04/25 00:20:12;;;;;;;;;;;;;;;7.20;69.39;98921.75;5082784;28;2144;-75
2023/04/25 00:22:38;;;;;;;;;;;;;;;7.19;69.67;98917.44;5084965;28;2110;-76
2023/04/25 00:25:05;;;;;;;;;;;;;;;7.19;69.80;98915.56;5080469;28;4994;-76
2023/04/25 00:27:31;;;;;;;;;;;;;;;7.20;69.51;98905.69;5064622;28;4190;-75
2023/04/25 00:29:58;;;;;;;;;;;;;;;7.18;69.73;98910.47;5083644;28;3900;-76
2023/04/25 00:32:24;;;;;;;;;;;;;;;7.20;69.28;98905.69;5081828;28;2241;-76
2023/04/25 00:34:51;;;;;;;;;;;;;;;7.19;69.27;98912.09;5082065;28;2132;-77
2023/04/25 00:37:18;;;;;;;;;;;;;;;7.17;69.32;98917.66;5063469;28;2201;-75
2023/04/25 00:39:44;;;;;;;;;;;;;;;7.15;69.65;98933.19;5084611;28;2047;-75
2023/04/25 00:42:11;;;;;;;;;;;;;;;7.19;69.38;98928.16;5083282;28;4010;-76
2023/04/25 00:44:37;;;;;;;;;;;;;;;7.16;69.43;98918.72;5082564;28;2152;-75
2023/04/25 00:47:04;;;;;;;;;;;;;;;7.15;69.55;98913.63;5081936;28;2235;-74
2023/04/25 00:49:31;;;;;;;;;;;;;;;7.14;69.41;98910.13;5081670;28;2339;-74
2023/04/25 00:51:57;;;;;;;;;;;;;;;7.15;69.56;98914.44;5082258;28;2124;-75
2023/04/25 00:54:24;;;;;;;;;;;;;;;7.14;69.28;98912.78;5070076;28;2193;-75
2023/04/25 00:56:50;;;;;;;;;;;;;;;7.13;69.48;98902.34;5082487;28;2247;-75
2023/04/25 00:59:17;;;;;;;;;;;;;;;7.18;69.11;98903.25;5084019;28;2047;-75
2023/04/25 01:01:43;;;;;;;;;;;;;;;7.12;69.45;98906.03;5080607;28;2228;-75
2023/04/25 01:04:10;;;;;;;;;;;;;;;7.11;69.36;98907.91;5081041;28;2148;-77
2023/04/25 01:06:37;;;;;;;;;;;;;;;7.09;69.52;98904.69;5081668;28;2211;-75
2023/04/25 01:09:04;;;;;;;;;;;;;;;7.08;69.41;98896.88;5082549;28;2216;-77
2023/04/25 01:11:31;;;;;;;;;;;;;;;7.09;69.32;98888.63;5084163;28;2171;-76
2023/04/25 01:13:57;;;;;;;;;;;;;;;7.09;69.57;98898.47;5080594;28;2181;-77
2023/04/25 01:16:24;;;;;;;;;;;;;;;7.08;69.49;98897.69;5081078;28;2351;-75
2023/04/25 01:18:51;;;;;;;;;;;;;;;7.09;69.54;98887.78;5082711;28;2283;-77
2023/04/25 01:21:17;;;;;;;;;;;;;;;7.08;69.27;98896.88;5084204;28;2140;-76
2023/04/25 01:23:44;;;;;;;;;;;;;;;7.05;69.43;98890.94;5061799;28;2143;-78
2023/04/25 01:26:10;;;;;;;;;;;;;;;7.04;69.35;98885.84;5059145;28;4932;-75
2023/04/25 01:28:37;;;;;;;;;;;;;;;7.05;69.68;98887.44;5081356;28;3854;-78
2023/04/25 01:31:03;;;;;;;;;;;;;;;7.09;69.58;98895.81;5081326;28;2221;-77
2023/04/25 01:33:30;;;;;;;;;;;;;;;7.05;69.37;98898.16;5081210;28;3935;-76
2023/04/25 01:35:57;;;;;;;;;;;;;;;7.05;69.68;98911.53;5083288;28;2182;-76
2023/04/25 01:38:23;;;;;;;;;;;;;;;7.03;69.35;98917.16;5081375;28;1927;-77
2023/04/25 01:40:50;;;;;;;;;;;;;;;7.02;69.60;98918.19;5082225;28;2148;-76
2023/04/25 01:43:16;;;;;;;;;;;;;;;7.02;69.37;98920.03;5082548;28;1840;-77
2023/04/25 01:45:43;;;;;;;;;;;;;;;7.02;69.35;98909.34;5081155;28;3862;-75
2023/04/25 01:48:09;;;;;;;;;;;;;;;7.00;69.54;98906.91;5061363;28;2180;-76
2023/04/25 01:50:36;;;;;;;;;;;;;;;7.01;69.42;98910.41;5061072;28;2181;-75
2023/04/25 01:53:02;;;;;;;;;;;;;;;7.00;69.20;98903.41;5063867;28;1977;-75
2023/04/25 01:55:29;;;;;;;;;;;;;;;7.01;69.24;98908.53;5056775;28;5270;-75
2023/04/25 01:57:55;;;;;;;;;;;;;;;6.98;69.72;98897.47;5080712;28;4192;-75
2023/04/25 02:00:22;;;;;;;;;;;;;;;6.98;69.52;98905.50;5080401;28;3968;-77
2023/04/25 02:02:50;;;;;;;;;;;;;;;6.98;69.63;98898.28;5083461;28;2002;-76
2023/04/25 02:05:17;;;;;;;;;;;;;;;6.98;69.56;98894.81;5079436;28;1891;-77
2023/04/25 02:07:43;;;;;;;;;;;;;;;6.97;69.36;98890.50;5061061;28;2201;-76
2023/04/25 02:10:10;;;;;;;;;;;;;;;6.97;69.61;98895.84;5081410;28;2229;-77
2023/04/25 02:12:36;;;;;;;;;;;;;;;6.96;69.35;98891.53;5082241;28;4157;-76
2023/04/25 02:15:03;;;;;;;;;;;;;;;6.94;69.31;98891.78;5061876;28;2211;-77
2023/04/25 02:17:31;;;;;;;;;;;;;;;6.95;69.69;98895.28;5081421;28;2246;-76
2023/04/25 02:19:58;;;;;;;;;;;;;;;6.93;69.37;98894.69;5062858;28;2175;-77
2023/04/25 02:22:24;;;;;;;;;;;;;;;6.92;69.27;98899.25;5080475;28;2135;-77
2023/04/25 02:24:51;;;;;;;;;;;;;;;6.92;69.36;98893.88;5081139;28;2035;-76
2023/04/25 02:27:17;;;;;;;;;;;;;;;6.94;69.58;98904.34;5079591;28;5031;-76
2023/04/25 02:29:44;;;;;;;;;;;;;;;6.92;69.61;98895.75;5081409;28;5228;-78
2023/04/25 02:32:10;;;;;;;;;;;;;;;6.91;69.38;98891.44;5067530;28;2158;-77
2023/04/25 02:34:37;;;;;;;;;;;;;;;6.90;69.25;98885.28;5080231;28;3914;-77
2023/04/25 02:37:03;;;;;;;;;;;;;;;6.90;69.58;98890.63;5081712;28;2287;-76
2023/04/25 02:39:30;;;;;;;;;;;;;;;6.89;69.66;98888.19;5080918;28;2186;-76
2023/04/25 02:41:56;;;;;;;;;;;;;;;6.87;69.47;98891.09;5082242;28;2152;-77
2023/04/25 02:44:23;;;;;;;;;;;;;;;6.70;69.58;98866.13;5060723;28;2139;-77
2023/04/25 02:46:50;;;;;;;;;;;;;;;6.87;69.27;98880.38;5063374;28;3899;-76
2023/04/25 02:49:16;;;;;;;;;;;;;;;6.87;69.29;98882.25;5080624;28;2144;-76
2023/04/25 02:51:43;;;;;;;;;;;;;;;6.86;69.31;98877.97;5080701;28;2185;-76
2023/04/25 02:54:10;;;;;;;;;;;;;;;6.85;69.37;98879.00;5082634;28;1870;-77
2023/04/25 02:56:36;;;;;;;;;;;;;;;6.85;69.48;98870.97;5081179;28;2447;-74
2023/04/25 02:59:03;;;;;;;;;;;;;;;6.84;69.44;98872.84;5062815;28;2229;-76
2023/04/25 03:01:29;;;;;;;;;;;;;;;6.83;69.44;98879.25;5058832;28;2305;-76
2023/04/25 03:03:56;;;;;;;;;;;;;;;6.83;69.32;98874.72;5077440;28;2279;-78
2023/04/25 03:06:22;;;;;;;;;;;;;;;6.83;69.67;98873.91;5070169;28;2214;-76
2023/04/25 03:08:49;;;;;;;;;;;;;;;6.81;69.57;98876.78;5084670;28;2379;-76
2023/04/25 03:11:15;;;;;;;;;;;;;;;6.81;69.19;98874.13;5086108;28;1954;-77
2023/04/25 03:13:42;;;;;;;;;;;;;;;6.83;69.33;98895.31;5065759;28;1974;-77
2023/04/25 03:16:08;;;;;;;;;;;;;;;6.81;69.52;98879.47;5083529;28;1915;-76
2023/04/25 03:18:35;;;;;;;;;;;;;;;6.79;69.10;98886.94;5059508;28;2171;-79
2023/04/25 03:21:01;;;;;;;;;;;;;;;6.79;69.37;98881.59;5069619;28;1990;-78
2023/04/25 03:23:28;;;;;;;;;;;;;;;6.78;69.23;98879.94;5063608;28;2109;-76
2023/04/25 03:25:54;;;;;;;;;;;;;;;6.78;69.33;98879.94;5046853;28;1680;-78
2023/04/25 03:28:21;;;;;;;;;;;;;;;6.77;69.36;98886.34;5061934;28;4749;-77
2023/04/25 03:30:48;;;;;;;;;;;;;;;6.77;69.45;98882.88;5067463;28;3859;-78
2023/04/25 03:33:14;;;;;;;;;;;;;;;6.78;69.52;98884.50;5044938;28;3779;-76
2023/04/25 03:35:42;;;;;;;;;;;;;;;6.75;69.46;98885.75;5073697;28;1909;-77
2023/04/25 03:38:08;;;;;;;;;;;;;;;6.77;69.14;98890.91;5064425;28;2011;-76
2023/04/25 03:40:35;;;;;;;;;;;;;;;6.74;69.30;98889.50;5045159;28;2059;-76
2023/04/25 03:43:01;;;;;;;;;;;;;;;6.73;69.29;98889.72;5047088;28;1949;-76
2023/04/25 03:45:28;;;;;;;;;;;;;;;6.72;69.29;98880.88;5064626;28;3950;-78
2023/04/25 03:47:55;;;;;;;;;;;;;;;6.71;69.49;98879.28;5071495;28;2398;-78
2023/04/25 03:50:21;;;;;;;;;;;;;;;6.72;69.51;98883.56;5048109;28;2159;-75
2023/04/25 03:52:48;;;;;;;;;;;;;;;6.71;69.34;98879.28;5070979;28;2223;-77
2023/04/25 03:55:14;;;;;;;;;;;;;;;6.71;69.29;98875.78;5070441;28;2022;-78
2023/04/25 03:57:41;;;;;;;;;;;;;;;6.69;69.37;98884.03;5060617;28;2216;-76
2023/04/25 04:00:07;;;;;;;;;;;;;;;6.69;69.29;98883.22;5045892;28;2101;-76
2023/04/25 04:02:34;;;;;;;;;;;;;;;6.70;69.55;98882.97;5061888;28;2056;-77
2023/04/25 04:05:01;;;;;;;;;;;;;;;6.68;69.31;98882.41;5063750;28;1899;-76
2023/04/25 04:07:28;;;;;;;;;;;;;;;6.68;69.46;98889.63;5076297;28;1693;-78
2023/04/25 04:09:54;;;;;;;;;;;;;;;6.68;69.27;98886.97;5064306;28;1700;-76
2023/04/25 04:12:21;;;;;;;;;;;;;;;6.66;69.35;98886.38;5065955;28;1770;-78
2023/04/25 04:14:47;;;;;;;;;;;;;;;6.64;69.30;98875.88;5045002;28;1851;-78
2023/04/25 04:17:14;;;;;;;;;;;;;;;6.64;69.62;98880.44;5074988;28;1971;-78
2023/04/25 04:19:41;;;;;;;;;;;;;;;6.64;69.62;98880.44;5064137;28;1564;-78
2023/04/25 04:22:07;;;;;;;;;;;;;;;6.62;69.64;98877.16;5050308;28;2051;-76
2023/04/25 04:24:34;;;;;;;;;;;;;;;6.64;69.19;98888.47;5060893;28;5206;-77
2023/04/25 04:27:01;;;;;;;;;;;;;;;6.60;69.41;98886.25;5065520;28;4974;-79
2023/04/25 04:29:28;;;;;;;;;;;;;;;6.60;69.29;98880.91;5065352;28;1541;-78
2023/04/25 04:31:54;;;;;;;;;;;;;;;6.61;69.32;98892.41;5044042;28;4981;-78
2023/04/25 04:34:21;;;;;;;;;;;;;;;6.59;69.38;98881.16;5046205;28;4927;-75
2023/04/25 04:36:47;;;;;;;;;;;;;;;6.58;69.21;98884.84;5065725;28;1981;-78
2023/04/25 04:39:14;;;;;;;;;;;;;;;6.58;69.58;98890.19;5070205;28;4820;-77
2023/04/25 04:41:41;;;;;;;;;;;;;;;6.57;69.17;98886.72;5065526;28;2051;-77
2023/04/25 04:44:08;;;;;;;;;;;;;;;6.59;69.38;98892.66;5068098;28;2432;-77
2023/04/25 04:46:37;;;;;;;;;;;;;;;6.57;69.55;98889.41;5068099;28;1526;-77
2023/04/25 04:49:04;;;;;;;;;;;;;;;6.55;69.21;98891.47;5063405;28;1632;-78
2023/04/25 04:51:31;;;;;;;;;;;;;;;6.54;69.21;98886.38;5072759;28;3968;-77
2023/04/25 04:53:58;;;;;;;;;;;;;;;6.52;69.57;98891.94;5079633;28;2022;-78
2023/04/25 04:56:25;;;;;;;;;;;;;;;6.53;69.38;98893.59;5065721;28;1987;-76
2023/04/25 04:58:52;;;;;;;;;;;;;;;6.52;69.27;98891.13;5057988;28;1800;-76
2023/04/25 05:01:18;;;;;;;;;;;;;;;6.52;69.53;98899.16;5083606;28;1736;-75
2023/04/25 05:03:45;;;;;;;;;;;;;;;6.50;69.11;98899.41;5068097;28;1559;-79
2023/04/25 05:06:11;;;;;;;;;;;;;;;6.48;69.27;98890.00;5056959;28;2206;-76
2023/04/25 05:08:38;;;;;;;;;;;;;;;6.48;69.50;98901.50;5081162;28;2233;-77
2023/04/25 05:11:04;;;;;;;;;;;;;;;6.48;69.27;98901.50;5082679;28;2414;-77
2023/04/25 05:13:31;;;;;;;;;;;;;;;6.48;69.58;98906.84;5064616;28;2122;-77
2023/04/25 05:15:58;;;;;;;;;;;;;;;6.47;69.40;98907.06;5080970;28;2098;-78
2023/04/25 05:18:24;;;;;;;;;;;;;;;6.48;69.11;98912.19;5063948;28;2154;-77
2023/04/25 05:20:51;;;;;;;;;;;;;;;6.46;69.11;98903.59;5062911;28;2174;-76
2023/04/25 05:23:17;;;;;;;;;;;;;;;6.46;69.25;98908.13;5083274;28;2030;-78
2023/04/25 05:25:44;;;;;;;;;;;;;;;6.45;69.34;98904.63;5083622;28;2158;-77
2023/04/25 05:28:10;;;;;;;;;;;;;;;6.46;69.33;98908.13;5082196;28;2010;-76
2023/04/25 05:30:37;;;;;;;;;;;;;;;6.46;69.37;98906.25;5080524;28;2114;-78
2023/04/25 05:33:03;;;;;;;;;;;;;;;6.44;69.19;98903.03;5076893;28;2036;-77
2023/04/25 05:35:30;;;;;;;;;;;;;;;6.44;69.36;98910.22;5063015;28;1984;-78
2023/04/25 05:37:56;;;;;;;;;;;;;;;6.43;69.32;98909.41;5062778;28;1969;-76
2023/04/25 05:40:23;;;;;;;;;;;;;;;6.41;69.42;98911.47;5079851;28;4928;-77
2023/04/25 05:42:50;;;;;;;;;;;;;;;6.42;69.22;98913.13;5062621;28;4037;-76
2023/04/25 05:45:17;;;;;;;;;;;;;;;6.39;69.60;98912.78;5081136;28;4153;-77
2023/04/25 05:47:43;;;;;;;;;;;;;;;6.41;69.22;98908.00;5083013;28;1499;-77
2023/04/25 05:50:10;;;;;;;;;;;;;;;6.40;69.29;98914.41;5082403;28;2109;-76
2023/04/25 05:52:37;;;;;;;;;;;;;;;6.37;69.21;98908.47;5081591;28;2037;-78
2023/04/25 05:55:03;;;;;;;;;;;;;;;6.39;69.52;98915.47;5084070;28;991;-77
2023/04/25 05:57:30;;;;;;;;;;;;;;;6.36;69.32;98917.53;5082372;28;3903;-77
2023/04/25 05:59:56;;;;;;;;;;;;;;;6.37;69.15;98921.84;5084270;28;2160;-77
2023/04/25 06:02:23;;;;;;;;;;;;;;;6.35;69.16;98918.59;5057911;28;1923;-77
2023/04/25 06:04:49;;;;;;;;;;;;;;;6.35;69.24;98921.28;5066626;28;1947;-78
2023/04/25 06:07:16;;;;;;;;;;;;;;;6.35;69.36;98918.59;5079099;28;1545;-77
2023/04/25 06:09:42;;;;;;;;;;;;;;;6.33;69.18;98918.00;5083101;28;2093;-78
2023/04/25 06:12:09;;;;;;;;;;;;;;;6.34;69.33;98918.81;5062772;28;1560;-79
2023/04/25 06:14:35;;;;;;;;;;;;;;;6.32;69.31;98919.06;5063348;28;1600;-77
2023/04/25 06:17:06;;;;;;;;;;;;;;;6.32;69.32;98916.38;5082425;28;1977;-78
2023/04/25 06:19:32;;;;;;;;;;;;;;;6.33;69.27;98914.53;5083335;28;2101;-78
2023/04/25 06:21:59;;;;;;;;;;;;;;;6.32;69.45;98924.41;5064263;28;1483;-77
2023/04/25 06:24:25;;;;;;;;;;;;;;;6.30;69.47;98926.50;5064811;28;1729;-78
2023/04/25 06:26:52;;;;;;;;;;;;;;;6.29;69.22;98918.69;5082426;28;1655;-79
2023/04/25 06:29:19;;;;;;;;;;;;;;;6.29;69.53;98924.84;5082767;28;2149;-77
2023/04/25 06:31:45;;;;;;;;;;;;;;;6.30;69.08;98917.66;5080685;28;2152;-79
2023/04/25 06:34:12;;;;;;;;;;;;;;;6.30;69.04;98923.00;5080209;28;1562;-78
2023/04/25 06:36:38;;;;;;;;;;;;;;;6.29;69.33;98927.50;5062486;28;1910;-79
2023/04/25 06:39:08;;;;;;;;;;;;;;;6.30;69.26;98926.50;5064210;28;1072;-79
2023/04/25 06:41:35;;;;;;;;;;;;;;;6.27;69.47;98926.16;5065149;28;1638;-79
2023/04/25 06:44:02;;;;;;;;;;;;;;;6.28;69.35;98928.56;5067032;28;1525;-79
2023/04/25 06:46:28;;;;;;;;;;;;;;;6.28;69.34;98922.41;5066598;28;4952;-79
2023/04/25 06:48:55;;;;;;;;;;;;;;;6.25;69.05;98921.03;5085291;28;3932;-79
2023/04/25 06:51:21;;;;;;;;;;;;;;;6.26;69.47;98933.31;5083896;28;1205;-79
2023/04/25 06:53:48;;;;;;;;;;;;;;;6.24;69.45;98931.97;5085685;28;3852;-80
2023/04/25 06:56:15;;;;;;;;;;;;;;;6.23;69.09;98923.09;5066933;28;5019;-80
2023/04/25 06:58:42;;;;;;;;;;;;;;;6.25;69.18;98929.03;5063215;28;2286;-80
2023/04/25 07:01:09;;;;;;;;;;;;;;;6.26;69.11;98937.88;5066048;28;4214;-80
2023/04/25 07:03:37;;;;;;;;;;;;;;;6.24;69.20;98929.28;5061355;28;2326;-81
2023/04/25 07:06:03;;;;;;;;;;;;;;;6.22;69.61;98931.38;5067436;28;1859;-80
2023/04/25 07:08:30;;;;;;;;;;;;;;;6.24;69.32;98930.09;5052148;28;1870;-80
2023/04/25 07:10:56;;;;;;;;;;;;;;;6.21;69.40;98933.22;5062019;28;2331;-80
2023/04/25 07:13:23;;;;;;;;;;;;;;;6.20;69.40;98938.78;5050049;28;5375;-80
2023/04/25 07:15:49;;;;;;;;;;;;;;;6.20;69.13;98933.44;5068431;28;1653;-81
2023/04/25 07:18:16;;;;;;;;;;;;;;;6.19;69.08;98939.84;5049074;28;2255;-81
2023/04/25 07:20:42;;;;;;;;;;;;;;;6.19;69.11;98939.84;5055094;28;4288;-81
2023/04/25 07:23:09;;;;;;;;;;;;;;;6.17;69.45;98937.38;5060774;28;2099;-83
2023/04/25 07:25:36;;;;;;;;;;;;;;;6.18;69.02;98946.22;5053989;28;2325;-81
2023/04/25 07:28:02;;;;;;;;;;;;;;;6.18;69.22;98941.72;5053491;28;1948;-80
2023/04/25 07:30:29;;;;;;;;;;;;;;;6.17;69.08;98947.28;5055668;28;2077;-81
2023/04/25 07:32:56;;;;;;;;;;;;;;;6.17;69.23;98945.41;5052495;28;2133;-81
2023/04/25 07:35:23;;;;;;;;;;;;;;;6.17;69.38;98950.75;5072700;28;1761;-80
2023/04/25 07:37:50;;;;;;;;;;;;;;;6.16;69.16;98957.16;5052251;28;1977;-81
2023/04/25 07:40:16;;;;;;;;;;;;;;;6.16;69.18;98951.00;5054903;28;1764;-79
2023/04/25 07:42:43;;;;;;;;;;;;;;;6.16;69.30;98962.50;5055433;28;2074;-81
2023/04/25 07:45:09;;;;;;;;;;;;;;;6.14;69.13;98960.03;5051638;28;2101;-81
2023/04/25 07:47:36;;;;;;;;;;;;;;;6.12;69.26;98956.81;5058037;28;2224;-78
2023/04/25 07:50:02;;;;;;;;;;;;;;;6.13;69.43;98962.97;5054386;28;4835;-81
2023/04/25 07:52:29;;;;;;;;;;;;;;;6.13;69.26;98963.78;5062571;28;4913;-80
2023/04/25 07:54:57;;;;;;;;;;;;;;;6.12;69.39;98958.66;5061287;28;2166;-81
2023/04/25 07:57:24;;;;;;;;;;;;;;;6.12;69.24;98974.72;5078865;28;3824;-78
2023/04/25 07:59:51;;;;;;;;;;;;;;;6.11;69.29;98967.72;5059403;28;2243;-78
2023/04/25 08:02:17;;;;;;;;;;;;;;;6.10;69.08;98969.56;5056398;28;2198;-79
2023/04/25 08:04:44;;;;;;;;;;;;;;;6.10;69.41;98971.44;5058340;28;1876;-80
2023/04/25 08:07:11;;;;;;;;;;;;;;;6.09;69.21;98973.31;5055522;28;2097;-81
2023/04/25 08:09:38;;;;;;;;;;;;;;;6.10;69.01;98974.94;5053534;28;3101;-80
2023/04/25 08:12:04;;;;;;;;;;;;;;;6.08;69.17;98978.88;5054372;28;2003;-80
2023/04/25 08:14:35;;;;;;;;;;;;;;;6.08;69.11;98982.34;5068700;28;2322;-80
2023/04/25 08:17:02;;;;;;;;;;;;;;;6.08;69.24;98984.22;5054916;28;1910;-81
2023/04/25 08:19:29;;;;;;;;;;;;;;;6.07;69.18;98987.94;5058126;28;1889;-80
2023/04/25 08:21:56;;;;;;;;;;;;;;;6.07;69.06;98995.97;5051535;28;5660;-80
2023/04/25 08:24:22;;;;;;;;;;;;;;;6.05;69.09;98990.00;5052869;28;2765;-80
2023/04/25 08:26:49;;;;;;;;;;;;;;;6.06;69.06;98991.63;5056396;28;2185;-80
2023/04/25 08:29:15;;;;;;;;;;;;;;;6.06;69.17;98997.81;5051368;28;4219;-79
2023/04/25 08:31:42;;;;;;;;;;;;;;;6.04;69.31;98991.88;5053932;28;1920;-81
2023/04/25 08:34:09;;;;;;;;;;;;;;;6.03;69.33;98998.28;5053312;28;1752;-80
2023/04/25 08:36:35;;;;;;;;;;;;;;;6.03;69.10;98995.59;5056248;28;1985;-79
2023/04/25 08:39:02;;;;;;;;;;;;;;;6.02;69.14;98998.50;5056545;28;1957;-80
2023/04/25 08:41:29;;;;;;;;;;;;;;;6.03;69.13;99000.09;5056174;28;1945;-80
2023/04/25 08:43:56;;;;;;;;;;;;;;;6.02;69.09;98999.31;5054957;28;2035;-80
2023/04/25 08:46:22;;;;;;;;;;;;;;;6.02;69.21;99001.16;5053931;28;1838;-81
2023/04/25 08:48:49;;;;;;;;;;;;;;;6.01;68.99;99003.03;5050333;28;5030;-82
2023/04/25 08:51:15;;;;;;;;;;;;;;;6.00;69.12;99008.59;5053435;28;1663;-79
2023/04/25 08:53:43;;;;;;;;;;;;;;;6.00;68.96;99005.91;5053966;28;2025;-80
2023/04/25 08:56:09;;;;;;;;;;;;;;;6.00;68.90;99009.41;5051535;28;2421;-81
2023/04/25 08:58:36;;;;;;;;;;;;;;;5.99;69.19;99010.44;5049592;28;4888;-81
2023/04/25 09:01:03;;;;;;;;;;;;;;;5.98;68.95;99011.50;5026829;28;5246;-81
2023/04/25 09:03:29;;;;;;;;;;;;;;;5.99;69.00;99021.13;5032769;28;1809;-81
2023/04/25 09:05:56;;;;;;;;;;;;;;;5.98;69.29;99019.50;5031380;28;5224;-82
2023/04/25 09:08:23;;;;;;;;;;;;;;;5.97;69.29;99015.22;5037454;28;2309;-82
2023/04/25 09:10:49;;;;;;;;;;;;;;;6.01;69.00;99013.72;5042700;28;4457;-80
2023/04/25 09:13:16;;;;;;;;;;;;;;;5.99;69.02;99014.97;5045132;28;1068;-80
2023/04/25 09:15:43;;;;;;;;;;;;;;;5.99;69.15;99020.31;5040159;28;2232;-81
2023/04/25 09:18:09;;;;;;;;;;;;;;;5.97;69.04;99028.59;5034586;28;2347;-81
2023/04/25 09:20:36;;;;;;;;;;;;;;;5.96;68.98;99026.13;5029279;28;1671;-81
2023/04/25 09:23:03;;;;;;;;;;;;;;;5.96;69.21;99034.94;5028759;28;4227;-79
2023/04/25 09:25:29;;;;;;;;;;;;;;;5.95;68.93;99037.88;5024686;28;1835;-81
2023/04/25 09:27:57;;;;;;;;;;;;;;;5.97;68.94;99033.09;5033181;28;1746;-80
2023/04/25 09:30:24;;;;;;;;;;;;;;;5.95;68.96;99036.00;5029363;28;2159;-82
2023/04/25 09:32:51;;;;;;;;;;;;;;;5.94;69.09;99039.69;5035729;28;2303;-80
2023/04/25 09:35:17;;;;;;;;;;;;;;;5.96;69.00;99039.50;5043670;28;1281;-81
2023/04/25 09:37:43;;;;;;;;;;;;;;;5.93;69.18;99038.06;5040382;28;1910;-79
2023/04/25 09:40:10;;;;;;;;;;;;;;;5.94;68.92;99039.69;5043005;28;2455;-80
2023/04/25 09:42:37;;;;;;;;;;;;;;;5.94;68.96;99046.91;5039859;28;1208;-81
2023/04/25 09:45:03;;;;;;;;;;;;;;;5.92;69.22;99039.91;5039521;28;1957;-79
2023/04/25 09:47:30;;;;;;;;;;;;;;;5.94;68.88;99039.69;5042263;28;1144;-79
2023/04/25 09:49:58;;;;;;;;;;;;;;;5.92;68.96;99042.59;5056666;28;1305;-79
2023/04/25 09:52:24;;;;;;;;;;;;;;;5.92;68.98;99042.59;5041708;28;1326;-79
2023/04/25 09:54:51;;;;;;;;;;;;;;;5.94;68.88;99054.91;5049188;28;1309;-79
2023/04/25 09:57:17;;;;;;;;;;;;;;;5.92;68.92;99055.94;5047242;28;2084;-79
2023/04/25 09:59:44;;;;;;;;;;;;;;;5.94;68.93;99058.41;5052404;28;5058;-78
2023/04/25 10:02:15;;;;;;;;;;;;;;;5.93;68.92;99056.78;5032220;28;2086;-81
2023/04/25 10:04:42;;;;;;;;;;;;;;;5.90;69.18;99065.22;5028173;28;4836;-78
2023/04/25 10:07:08;;;;;;;;;;;;;;;5.92;68.86;99060.47;5028604;28;1799;-79
2023/04/25 10:09:35;;;;;;;;;;;;;;;5.90;69.21;99059.88;5027705;28;3804;-79
2023/04/25 10:12:03;;;;;;;;;;;;;;;5.90;69.19;99068.69;5035821;28;1681;-79
2023/04/25 10:14:29;;;;;;;;;;;;;;;5.89;68.98;99069.75;5027771;28;1704;-80
2023/04/25 10:16:56;;;;;;;;;;;;;;;5.89;69.09;99072.44;5033596;28;1969;-78
2023/04/25 10:19:22;;;;;;;;;;;;;;;5.90;68.98;99076.72;5029510;28;2367;-77
2023/04/25 10:21:49;;;;;;;;;;;;;;;5.89;69.15;99072.44;5028718;28;5258;-77
2023/04/25 10:24:16;;;;;;;;;;;;;;;5.89;68.94;99075.09;5032613;28;1707;-77
2023/04/25 10:26:42;;;;;;;;;;;;;;;5.94;68.81;99076.31;5039896;28;1875;-76
2023/04/25 10:29:09;;;;;;;;;;;;;;;5.90;68.96;99084.75;5047203;28;1343;-78
2023/04/25 10:31:35;;;;;;;;;;;;;;;5.87;69.09;99079.84;5046391;28;1672;-78
2023/04/25 10:34:02;;;;;;;;;;;;;;;5.89;69.13;99079.63;5048138;28;1200;-79
2023/04/25 10:36:28;;;;;;;;;;;;;;;5.89;68.97;99079.63;5061162;28;1546;-81
2023/04/25 10:38:55;;;;;;;;;;;;;;;5.88;69.08;99075.31;5043665;28;1914;-78
2023/04/25 10:41:22;;;;;;;;;;;;;;;5.89;68.91;99082.31;5046337;28;1002;-79
2023/04/25 10:43:49;;;;;;;;;;;;;;;5.88;68.81;99084.16;5053146;28;1180;-79
2023/04/25 10:46:15;;;;;;;;;;;;;;;5.86;68.95;99083.56;5047288;28;1002;-78
2023/04/25 10:48:42;;;;;;;;;;;;;;;5.88;68.86;99083.31;5045727;28;1216;-78
2023/04/25 10:51:09;;;;;;;;;;;;;;;5.88;68.98;99086.00;5046841;28;998;-78
2023/04/25 10:53:35;;;;;;;;;;;;;;;5.87;68.88;99090.53;5043918;28;1085;-78
2023/04/25 10:56:02;;;;;;;;;;;;;;;5.88;69.07;99086.84;5059503;28;1197;-80
2023/04/25 10:58:29;;;;;;;;;;;;;;;5.88;68.77;99089.50;5063113;28;5115;-78
2023/04/25 11:00:55;;;;;;;;;;;;;;;5.88;69.04;99088.66;5085626;28;5342;-76
2023/04/25 11:03:22;;;;;;;;;;;;;;;5.87;68.89;99092.41;5085809;28;1002;-79
2023/04/25 11:05:49;;;;;;;;;;;;;;;5.86;68.98;99093.44;5082098;28;4965;-78
2023/04/25 11:08:16;;;;;;;;;;;;;;;5.86;69.03;99094.25;5066445;28;1168;-78
2023/04/25 11:10:42;;;;;;;;;;;;;;;5.87;68.79;99095.06;5086397;28;4979;-77
2023/04/25 11:13:09;;;;;;;;;;;;;;;5.86;68.95;99098.78;5087695;28;991;-78
2023/04/25 11:15:35;;;;;;;;;;;;;;;5.85;69.09;99100.66;5068356;28;1362;-79
2023/04/25 11:18:02;;;;;;;;;;;;;;;5.87;68.78;99100.41;5085632;28;1910;-78
2023/04/25 11:20:29;;;;;;;;;;;;;;;5.86;69.05;99102.28;5086620;28;1270;-77
2023/04/25 11:22:56;;;;;;;;;;;;;;;5.87;68.80;99095.06;5085830;28;5197;-78
2023/04/25 11:25:22;;;;;;;;;;;;;;;5.84;69.05;99101.66;5086508;28;1241;-78
2023/04/25 11:27:50;;;;;;;;;;;;;;;5.84;68.98;99101.66;5065160;28;1287;-77
2023/04/25 11:30:16;;;;;;;;;;;;;;;5.86;68.86;99106.81;5083953;28;1542;-78
2023/04/25 11:32:43;;;;;;;;;;;;;;;5.85;69.03;99102.47;5085678;28;1073;-78
2023/04/25 11:35:09;;;;;;;;;;;;;;;5.85;69.09;99110.50;5086311;28;1011;-77
2023/04/25 11:37:36;;;;;;;;;;;;;;;5.84;69.18;99112.34;5064738;28;1914;-77
2023/04/25 11:40:02;;;;;;;;;;;;;;;5.83;69.00;99113.41;5065887;28;1168;-78
2023/04/25 11:42:29;;;;;;;;;;;;;;;5.84;69.01;99116.91;5083678;28;1655;-77
2023/04/25 11:44:55;;;;;;;;;;;;;;;5.85;68.87;99116.69;5085293;28;1018;-77
2023/04/25 11:47:22;;;;;;;;;;;;;;;5.85;68.75;99124.69;5081965;28;1006;-77
2023/04/25 11:49:48;;;;;;;;;;;;;;;5.84;68.95;99127.59;5085956;28;1022;-77
2023/04/25 11:52:15;;;;;;;;;;;;;;;5.84;68.98;99122.22;5085129;28;1003;-77
2023/04/25 11:54:42;;;;;;;;;;;;;;;5.83;69.03;99125.97;5084593;28;1116;-77
2023/04/25 11:57:08;;;;;;;;;;;;;;;5.83;68.82;99124.09;5087055;28;1205;-78
2023/04/25 11:59:35;;;;;;;;;;;;;;;5.84;68.89;99124.91;5085374;28;1960;-77
2023/04/25 12:02:02;;;;;;;;;;;;;;;5.82;68.81;99119.78;5085334;28;1139;-77
2023/04/25 12:04:28;;;;;;;;;;;;;;;5.83;68.99;99131.31;5083920;28;2169;-76
2023/04/25 12:06:55;;;;;;;;;;;;;;;5.82;69.11;99130.47;5063646;28;1996;-76
2023/04/25 12:09:22;;;;;;;;;;;;;;;5.82;68.90;99122.44;5081571;28;4709;-77
2023/04/25 12:11:48;;;;;;;;;;;;;;;5.83;69.22;99128.63;5084894;28;3923;-77
2023/04/25 12:14:15;;;;;;;;;;;;;;;5.83;68.86;99131.31;5085134;28;2149;-76
2023/04/25 12:16:41;;;;;;;;;;;;;;;5.81;68.82;99131.50;5082301;28;3820;-77
2023/04/25 12:19:08;;;;;;;;;;;;;;;5.81;69.00;99136.84;5079655;28;2172;-77
2023/04/25 12:21:35;;;;;;;;;;;;;;;5.81;68.95;99136.84;5085039;28;2166;-78
2023/04/25 12:24:01;;;;;;;;;;;;;;;5.81;69.00;99150.22;5083134;28;2003;-76
2023/04/25 12:26:28;;;;;;;;;;;;;;;5.81;68.96;99142.19;5082479;28;2065;-77
2023/04/25 12:28:55;;;;;;;;;;;;;;;5.81;68.70;99150.22;5083827;28;1692;-77
2023/04/25 12:31:21;;;;;;;;;;;;;;;5.81;68.99;99147.53;5072795;28;1906;-76
2023/04/25 12:33:48;;;;;;;;;;;;;;;5.81;68.95;99152.88;5077310;28;2244;-77
2023/04/25 12:36:16;;;;;;;;;;;;;;;5.80;69.02;99155.78;5064589;28;2310;-78
2023/04/25 12:38:46;;;;;;;;;;;;;;;5.79;69.19;99157.63;5062242;28;1914;-78
2023/04/25 12:41:13;;;;;;;;;;;;;;;5.81;68.79;99160.09;5081026;28;2180;-77
2023/04/25 12:43:39;;;;;;;;;;;;;;;5.87;68.66;99159.19;5083995;28;2236;-77
2023/04/25 12:46:06;;;;;;;;;;;;;;;5.81;68.77;99157.41;5064754;28;2008;-77
2023/04/25 12:48:32;;;;;;;;;;;;;;;5.81;68.79;99160.09;5065195;28;1539;-77
2023/04/25 12:50:59;;;;;;;;;;;;;;;5.80;68.85;99161.13;5084419;28;1810;-78
2023/04/25 12:53:25;;;;;;;;;;;;;;;5.79;69.10;99146.13;5083450;28;2010;-76
2023/04/25 12:55:52;;;;;;;;;;;;;;;5.78;68.92;99158.69;5066214;28;1315;-78
2023/04/25 12:58:18;;;;;;;;;;;;;;;5.80;68.80;99163.81;5084319;28;1919;-78
2023/04/25 13:00:45;;;;;;;;;;;;;;;5.78;68.93;99164.03;5083352;28;1587;-77
2023/04/25 13:03:12;;;;;;;;;;;;;;;5.79;68.98;99162.16;5066730;28;2176;-77